sensor_id;sensor_type;location;lat;lon;timestamp;pressure;altitude;pressure_sealevel;temperature;humidity
48517;BME280;34310;51.904;4.256;2023-12-20T00:00:11;101745.25;;;14.96;63.75
48517;BME280;34310;51.904;4.256;2023-12-20T00:02:38;101755.53;;;14.94;63.78
48517;BME280;34310;51.904;4.256;2023-12-20T00:05:05;101758.84;;;14.92;63.97
48517;BME280;34310;51.904;4.256;2023-12-20T00:07:31;101750.84;;;14.88;63.95
48517;BME280;34310;51.904;4.256;2023-12-20T00:09:58;101755.03;;;14.86;63.94
48517;BME280;34310;51.904;4.256;2023-12-20T00:12:24;101750.53;;;14.84;64.05
48517;BME280;34310;51.904;4.256;2023-12-20T00:14:51;101747.72;;;14.81;64.15
48517;BME280;34310;51.904;4.256;2023-12-20T00:17:17;101748.31;;;14.77;64.32
48517;BME280;34310;51.904;4.256;2023-12-20T00:19:44;101738.38;;;14.71;64.41
48517;BME280;34310;51.904;4.256;2023-12-20T00:22:10;101750.34;;;14.69;64.37
48517;BME280;34310;51.904;4.256;2023-12-20T00:24:37;101738.97;;;14.67;64.33
48517;BME280;34310;51.904;4.256;2023-12-20T00:27:04;101738.84;;;14.66;64.59
48517;BME280;34310;51.904;4.256;2023-12-20T00:29:30;101734.03;;;14.59;64.55
48517;BME280;34310;51.904;4.256;2023-12-20T00:31:57;101741.25;;;14.63;64.59
48517;BME280;34310;51.904;4.256;2023-12-20T00:34:23;101749.47;;;14.69;64.66
48517;BME280;34310;51.904;4.256;2023-12-20T00:36:50;101756.00;;;14.75;64.49
48517;BME280;34310;51.904;4.256;2023-12-20T00:39:16;101745.31;;;14.84;64.28
48517;BME280;34310;51.904;4.256;2023-12-20T00:41:43;101748.75;;;14.96;63.90
48517;BME280;34310;51.904;4.256;2023-12-20T00:44:09;101747.59;;;15.04;63.76
48517;BME280;34310;51.904;4.256;2023-12-20T00:46:35;101750.69;;;15.12;63.64
48517;BME280;34310;51.904;4.256;2023-12-20T00:49:02;101750.09;;;15.16;63.71
48517;BME280;34310;51.904;4.256;2023-12-20T00:51:29;101744.28;;;15.20;63.35
48517;BME280;34310;51.904;4.256;2023-12-20T00:53:55;101749.69;;;15.23;63.40
48517;BME280;34310;51.904;4.256;2023-12-20T00:56:21;101752.50;;;15.26;63.20
48517;BME280;34310;51.904;4.256;2023-12-20T00:58:48;101740.09;;;15.22;63.24
48517;BME280;34310;51.904;4.256;2023-12-20T01:01:15;101763.09;;;15.29;63.21
48517;BME280;34310;51.904;4.256;2023-12-20T01:03:42;101757.09;;;15.30;63.20
48517;BME280;34310;51.904;4.256;2023-12-20T01:06:08;101759.78;;;15.32;63.27
48517;BME280;34310;51.904;4.256;2023-12-20T01:08:35;101758.22;;;15.34;63.18
48517;BME280;34310;51.904;4.256;2023-12-20T01:11:04;101760.03;;;15.35;63.34
48517;BME280;34310;51.904;4.256;2023-12-20T01:13:30;101762.63;;;15.35;63.15
48517;BME280;34310;51.904;4.256;2023-12-20T01:15:57;101754.81;;;15.35;63.18
48517;BME280;34310;51.904;4.256;2023-12-20T01:18:23;101760.94;;;15.35;63.32
48517;BME280;34310;51.904;4.256;2023-12-20T01:20:50;101759.22;;;15.36;63.07
48517;BME280;34310;51.904;4.256;2023-12-20T01:23:16;101759.22;;;15.36;63.01
48517;BME280;34310;51.904;4.256;2023-12-20T01:25:43;101755.63;;;15.34;63.08
48517;BME280;34310;51.904;4.256;2023-12-20T01:28:09;101761.81;;;15.36;63.24
48517;BME280;34310;51.904;4.256;2023-12-20T01:30:36;101759.22;;;15.36;62.93
48517;BME280;34310;51.904;4.256;2023-12-20T01:33:03;101756.28;;;15.31;63.00
48517;BME280;34310;51.904;4.256;2023-12-20T01:35:29;101761.41;;;15.30;63.03
48517;BME280;34310;51.904;4.256;2023-12-20T01:37:55;101754.50;;;15.30;63.07
48517;BME280;34310;51.904;4.256;2023-12-20T01:40:22;101749.53;;;15.33;63.03
48517;BME280;34310;51.904;4.256;2023-12-20T01:45:26;101739.78;;;15.31;63.03
48517;BME280;34310;51.904;4.256;2023-12-20T01:47:53;101739.47;;;15.26;63.04
48517;BME280;34310;51.904;4.256;2023-12-20T01:50:20;101745.78;;;15.30;63.08
48517;BME280;34310;51.904;4.256;2023-12-20T01:52:47;101749.09;;;15.27;62.95
48517;BME280;34310;51.904;4.256;2023-12-20T01:55:14;101748.28;;;15.28;63.35
48517;BME280;34310;51.904;4.256;2023-12-20T01:57:41;101742.09;;;15.26;63.15
48517;BME280;34310;51.904;4.256;2023-12-20T02:00:10;101762.91;;;15.26;63.32
48517;BME280;34310;51.904;4.256;2023-12-20T02:02:39;101751.59;;;15.26;63.22
48517;BME280;34310;51.904;4.256;2023-12-20T02:05:07;101752.09;;;15.20;63.21
48517;BME280;34310;51.904;4.256;2023-12-20T02:07:34;101742.09;;;15.13;63.27
48517;BME280;34310;51.904;4.256;2023-12-20T02:10:01;101754.78;;;15.22;63.15
48517;BME280;34310;51.904;4.256;2023-12-20T02:12:28;101747.78;;;15.21;63.14
48517;BME280;34310;51.904;4.256;2023-12-20T02:14:54;101741.38;;;15.15;63.19
48517;BME280;34310;51.904;4.256;2023-12-20T02:17:21;101750.28;;;15.19;63.11
48517;BME280;34310;51.904;4.256;2023-12-20T02:19:49;101756.28;;;15.18;63.08
48517;BME280;34310;51.904;4.256;2023-12-20T02:22:16;101749.28;;;15.17;63.04
48517;BME280;34310;51.904;4.256;2023-12-20T02:24:42;101749.19;;;15.15;63.33
48517;BME280;34310;51.904;4.256;2023-12-20T02:27:09;101754.28;;;15.14;63.18
48517;BME280;34310;51.904;4.256;2023-12-20T02:29:36;101746.47;;;15.14;63.37
48517;BME280;34310;51.904;4.256;2023-12-20T02:32:03;101741.28;;;15.14;63.30
48517;BME280;34310;51.904;4.256;2023-12-20T02:34:29;101737.69;;;15.12;63.31
48517;BME280;34310;51.904;4.256;2023-12-20T02:36:56;101729.56;;;15.07;63.21
48517;BME280;34310;51.904;4.256;2023-12-20T02:39:22;101719.97;;;15.06;63.29
48517;BME280;34310;51.904;4.256;2023-12-20T02:41:49;101731.38;;;15.08;63.27
48517;BME280;34310;51.904;4.256;2023-12-20T02:44:15;101727.78;;;15.06;63.32
48517;BME280;34310;51.904;4.256;2023-12-20T02:46:42;101729.78;;;15.10;63.21
48517;BME280;34310;51.904;4.256;2023-12-20T02:49:08;101712.53;;;14.99;63.27
48517;BME280;34310;51.904;4.256;2023-12-20T02:51:35;101727.97;;;15.09;63.37
48517;BME280;34310;51.904;4.256;2023-12-20T02:54:02;101712.88;;;15.04;63.23
48517;BME280;34310;51.904;4.256;2023-12-20T02:56:28;101714.66;;;15.05;63.34
48517;BME280;34310;51.904;4.256;2023-12-20T02:58:54;101704.84;;;15.01;63.33
48517;BME280;34310;51.904;4.256;2023-12-20T03:01:21;101718.06;;;15.04;63.22
48517;BME280;34310;51.904;4.256;2023-12-20T03:03:48;101700.03;;;14.94;63.28
48517;BME280;34310;51.904;4.256;2023-12-20T03:06:18;101716.84;;;14.99;63.48
48517;BME280;34310;51.904;4.256;2023-12-20T03:08:45;101712.94;;;14.92;63.63
48517;BME280;34310;51.904;4.256;2023-12-20T03:11:12;101709.34;;;14.90;63.63
48517;BME280;34310;51.904;4.256;2023-12-20T03:13:38;101725.72;;;14.89;63.74
48517;BME280;34310;51.904;4.256;2023-12-20T03:16:12;101723.72;;;14.85;64.01
48517;BME280;34310;51.904;4.256;2023-12-20T03:18:39;101721.72;;;14.81;63.87
48517;BME280;34310;51.904;4.256;2023-12-20T03:21:06;101717.22;;;14.78;63.94
48517;BME280;34310;51.904;4.256;2023-12-20T03:23:32;101720.38;;;14.74;64.09
48517;BME280;34310;51.904;4.256;2023-12-20T03:25:59;101722.56;;;14.68;64.15
48517;BME280;34310;51.904;4.256;2023-12-20T03:28:27;101720.66;;;14.66;64.40
48517;BME280;34310;51.904;4.256;2023-12-20T03:30:54;101729.06;;;14.62;64.40
48517;BME280;34310;51.904;4.256;2023-12-20T03:33:20;101725.25;;;14.56;64.56
48517;BME280;34310;51.904;4.256;2023-12-20T03:35:47;101725.84;;;14.52;64.55
48517;BME280;34310;51.904;4.256;2023-12-20T03:38:13;101737.03;;;14.51;64.58
48517;BME280;34310;51.904;4.256;2023-12-20T03:40:40;101731.34;;;14.57;64.95
48517;BME280;34310;51.904;4.256;2023-12-20T03:43:06;101724.53;;;14.59;64.50
48517;BME280;34310;51.904;4.256;2023-12-20T03:45:33;101716.47;;;14.68;64.40
48517;BME280;34310;51.904;4.256;2023-12-20T03:48:00;101715.63;;;14.80;64.12
48517;BME280;34310;51.904;4.256;2023-12-20T03:50:26;101722.44;;;14.92;63.93
48517;BME280;34310;51.904;4.256;2023-12-20T03:52:53;101730.94;;;15.02;63.75
48517;BME280;34310;51.904;4.256;2023-12-20T03:55:20;101725.28;;;15.08;63.55
48517;BME280;34310;51.904;4.256;2023-12-20T03:57:46;101719.69;;;15.15;63.39
48517;BME280;34310;51.904;4.256;2023-12-20T04:00:13;101725.19;;;15.19;63.22
48517;BME280;34310;51.904;4.256;2023-12-20T04:02:41;101719.28;;;15.22;63.05
48517;BME280;34310;51.904;4.256;2023-12-20T04:05:09;101717.66;;;15.24;63.31
48517;BME280;34310;51.904;4.256;2023-12-20T04:07:36;101708.88;;;15.22;63.09
48517;BME280;34310;51.904;4.256;2023-12-20T04:10:03;101710.97;;;15.28;63.41
48517;BME280;34310;51.904;4.256;2023-12-20T04:12:30;101719.66;;;15.28;63.34
48517;BME280;34310;51.904;4.256;2023-12-20T04:14:57;101713.47;;;15.26;63.00
48517;BME280;34310;51.904;4.256;2023-12-20T04:17:23;101716.47;;;15.32;63.09
48517;BME280;34310;51.904;4.256;2023-12-20T04:19:50;101716.47;;;15.32;63.01
48517;BME280;34310;51.904;4.256;2023-12-20T04:22:18;101713.88;;;15.32;62.92
48517;BME280;34310;51.904;4.256;2023-12-20T04:24:45;101707.00;;;15.33;62.87
48517;BME280;34310;51.904;4.256;2023-12-20T04:27:11;101703.44;;;15.32;62.96
48517;BME280;34310;51.904;4.256;2023-12-20T04:29:38;101707.00;;;15.33;62.82
48517;BME280;34310;51.904;4.256;2023-12-20T04:32:05;101705.28;;;15.33;63.08
48517;BME280;34310;51.904;4.256;2023-12-20T04:34:31;101695.44;;;15.29;62.91
48517;BME280;34310;51.904;4.256;2023-12-20T04:36:58;101689.25;;;15.27;63.06
48517;BME280;34310;51.904;4.256;2023-12-20T04:39:24;101686.94;;;15.32;62.96
48517;BME280;34310;51.904;4.256;2023-12-20T04:41:51;101686.66;;;15.27;62.95
48517;BME280;34310;51.904;4.256;2023-12-20T04:44:17;101679.03;;;15.30;63.05
48517;BME280;34310;51.904;4.256;2023-12-20T04:46:44;101681.63;;;15.30;62.98
48517;BME280;34310;51.904;4.256;2023-12-20T04:49:10;101664.13;;;15.28;62.98
48517;BME280;34310;51.904;4.256;2023-12-20T04:51:37;101669.03;;;15.23;63.06
48517;BME280;34310;51.904;4.256;2023-12-20T04:54:03;101678.75;;;15.26;63.10
48517;BME280;34310;51.904;4.256;2023-12-20T04:56:30;101684.84;;;15.26;63.05
48517;BME280;34310;51.904;4.256;2023-12-20T04:58:56;101678.56;;;15.23;62.88
48517;BME280;34310;51.904;4.256;2023-12-20T05:01:23;101688.25;;;15.25;63.01
48517;BME280;34310;51.904;4.256;2023-12-20T05:03:49;101675.16;;;15.24;62.92
48517;BME280;34310;51.904;4.256;2023-12-20T05:06:16;101681.94;;;15.22;63.17
48517;BME280;34310;51.904;4.256;2023-12-20T05:08:42;101702.75;;;15.22;62.99
48517;BME280;34310;51.904;4.256;2023-12-20T05:11:11;101699.25;;;15.21;62.81
48517;BME280;34310;51.904;4.256;2023-12-20T05:13:37;101685.84;;;15.15;63.04
48517;BME280;34310;51.904;4.256;2023-12-20T05:16:15;101687.56;;;15.14;63.08
48517;BME280;34310;51.904;4.256;2023-12-20T05:18:41;101679.75;;;15.14;62.81
48517;BME280;34310;51.904;4.256;2023-12-20T05:21:08;101670.66;;;15.08;63.00
48517;BME280;34310;51.904;4.256;2023-12-20T05:23:34;101691.16;;;15.16;63.10
48517;BME280;34310;51.904;4.256;2023-12-20T05:26:01;101691.06;;;15.15;63.00
48517;BME280;34310;51.904;4.256;2023-12-20T05:28:27;101697.06;;;15.14;63.01
48517;BME280;34310;51.904;4.256;2023-12-20T05:30:54;101692.56;;;15.11;63.15
48517;BME280;34310;51.904;4.256;2023-12-20T05:33:20;101692.66;;;15.13;63.22
48517;BME280;34310;51.904;4.256;2023-12-20T05:35:47;101688.25;;;15.12;63.00
48517;BME280;34310;51.904;4.256;2023-12-20T05:38:14;101671.56;;;15.08;63.07
48517;BME280;34310;51.904;4.256;2023-12-20T05:40:40;101668.97;;;15.08;62.96
48517;BME280;34310;51.904;4.256;2023-12-20T05:43:06;101672.66;;;15.12;62.87
48517;BME280;34310;51.904;4.256;2023-12-20T05:45:33;101669.25;;;15.13;62.94
48517;BME280;34310;51.904;4.256;2023-12-20T05:48:00;101670.84;;;15.11;62.96
48517;BME280;34310;51.904;4.256;2023-12-20T05:50:26;101661.75;;;15.04;63.01
48517;BME280;34310;51.904;4.256;2023-12-20T05:52:53;101665.25;;;15.05;62.89
48517;BME280;34310;51.904;4.256;2023-12-20T05:55:19;101673.72;;;15.02;63.03
48517;BME280;34310;51.904;4.256;2023-12-20T05:57:46;101678.72;;;14.99;63.16
48517;BME280;34310;51.904;4.256;2023-12-20T06:00:13;101675.13;;;14.97;63.13
48517;BME280;34310;51.904;4.256;2023-12-20T06:02:40;101675.72;;;14.93;63.21
48517;BME280;34310;51.904;4.256;2023-12-20T06:05:06;101677.22;;;14.90;63.46
48517;BME280;34310;51.904;4.256;2023-12-20T06:07:33;101672.63;;;14.85;63.45
48517;BME280;34310;51.904;4.256;2023-12-20T06:10:00;101668.94;;;14.82;63.70
48517;BME280;34310;51.904;4.256;2023-12-20T06:12:26;101680.94;;;14.80;63.63
48517;BME280;34310;51.904;4.256;2023-12-20T06:14:53;101676.31;;;14.76;63.70
48517;BME280;34310;51.904;4.256;2023-12-20T06:17:19;101674.38;;;14.73;63.89
48517;BME280;34310;51.904;4.256;2023-12-20T06:19:46;101670.38;;;14.65;63.80
48517;BME280;34310;51.904;4.256;2023-12-20T06:22:12;101674.47;;;14.62;63.94
48517;BME280;34310;51.904;4.256;2023-12-20T06:24:39;101674.06;;;14.55;64.26
48517;BME280;34310;51.904;4.256;2023-12-20T06:27:05;101674.16;;;14.57;64.10
48517;BME280;34310;51.904;4.256;2023-12-20T06:29:32;101684.34;;;14.54;64.22
48517;BME280;34310;51.904;4.256;2023-12-20T06:31:58;101681.56;;;14.51;64.41
48517;BME280;34310;51.904;4.256;2023-12-20T06:34:25;101670.63;;;14.43;64.49
48517;BME280;34310;51.904;4.256;2023-12-20T06:36:51;101670.47;;;14.53;64.33
48517;BME280;34310;51.904;4.256;2023-12-20T06:39:18;101671.78;;;14.60;64.31
48517;BME280;34310;51.904;4.256;2023-12-20T06:41:44;101669.78;;;14.69;64.05
48517;BME280;34310;51.904;4.256;2023-12-20T06:44:11;101672.31;;;14.81;64.04
48517;BME280;34310;51.904;4.256;2023-12-20T06:46:37;101669.22;;;14.86;63.68
48517;BME280;34310;51.904;4.256;2023-12-20T06:49:04;101675.13;;;14.97;63.56
48517;BME280;34310;51.904;4.256;2023-12-20T06:51:30;101656.41;;;15.03;63.26
48517;BME280;34310;51.904;4.256;2023-12-20T06:53:57;101663.06;;;15.11;63.12
48517;BME280;34310;51.904;4.256;2023-12-20T06:56:23;101670.25;;;15.15;63.29
48517;BME280;34310;51.904;4.256;2023-12-20T06:58:50;101663.25;;;15.14;63.03
48517;BME280;34310;51.904;4.256;2023-12-20T07:01:16;101670.53;;;15.19;62.93
48517;BME280;34310;51.904;4.256;2023-12-20T07:03:43;101658.53;;;15.22;62.95
48517;BME280;34310;51.904;4.256;2023-12-20T07:06:10;101650.03;;;15.24;62.98
48517;BME280;34310;51.904;4.256;2023-12-20T07:08:36;101642.03;;;15.21;62.85
48517;BME280;34310;51.904;4.256;2023-12-20T07:11:03;101645.03;;;15.27;62.83
48517;BME280;34310;51.904;4.256;2023-12-20T07:13:29;101643.13;;;15.25;62.79
48517;BME280;34310;51.904;4.256;2023-12-20T07:15:56;101639.63;;;15.24;62.82
48517;BME280;34310;51.904;4.256;2023-12-20T07:18:23;101630.31;;;15.28;62.68
48517;BME280;34310;51.904;4.256;2023-12-20T07:20:49;101623.03;;;15.22;62.79
48517;BME280;34310;51.904;4.256;2023-12-20T07:23:16;101626.53;;;15.23;62.90
48517;BME280;34310;51.904;4.256;2023-12-20T07:25:42;101637.22;;;15.27;62.70
48517;BME280;34310;51.904;4.256;2023-12-20T07:28:09;101625.00;;;15.26;62.69
48517;BME280;34310;51.904;4.256;2023-12-20T07:30:35;101634.63;;;15.27;62.69
48517;BME280;34310;51.904;4.256;2023-12-20T07:33:02;101639.72;;;15.26;62.70
48517;BME280;34310;51.904;4.256;2023-12-20T07:35:29;101641.53;;;15.27;62.76
48517;BME280;34310;51.904;4.256;2023-12-20T07:37:56;101649.22;;;15.25;62.82
48517;BME280;34310;51.904;4.256;2023-12-20T07:40:22;101651.72;;;15.24;62.67
48517;BME280;34310;51.904;4.256;2023-12-20T07:42:49;101652.63;;;15.24;62.72
48517;BME280;34310;51.904;4.256;2023-12-20T07:45:15;101660.44;;;15.24;62.88
48517;BME280;34310;51.904;4.256;2023-12-20T07:47:42;101667.84;;;15.18;62.92
48517;BME280;34310;51.904;4.256;2023-12-20T07:50:09;101667.03;;;15.19;62.82
48517;BME280;34310;51.904;4.256;2023-12-20T07:52:36;101672.44;;;15.22;62.91
48517;BME280;34310;51.904;4.256;2023-12-20T07:55:02;101687.97;;;15.21;62.79
48517;BME280;34310;51.904;4.256;2023-12-20T07:57:29;101691.34;;;15.19;62.86
48517;BME280;34310;51.904;4.256;2023-12-20T07:59:56;101694.75;;;15.18;62.88
48517;BME280;34310;51.904;4.256;2023-12-20T08:02:22;101705.16;;;15.18;62.87
48517;BME280;34310;51.904;4.256;2023-12-20T08:04:49;101699.88;;;15.17;62.89
48517;BME280;34310;51.904;4.256;2023-12-20T08:07:15;101696.34;;;15.16;62.79
48517;BME280;34310;51.904;4.256;2023-12-20T08:09:42;101681.47;;;15.14;62.83
48517;BME280;34310;51.904;4.256;2023-12-20T08:12:08;101677.97;;;15.13;62.88
48517;BME280;34310;51.904;4.256;2023-12-20T08:14:35;101668.34;;;15.12;62.98
48517;BME280;34310;51.904;4.256;2023-12-20T08:17:01;101678.84;;;15.14;63.00
48517;BME280;34310;51.904;4.256;2023-12-20T08:19:28;101682.25;;;15.13;62.82
48517;BME280;34310;51.904;4.256;2023-12-20T08:21:54;101674.34;;;15.11;62.93
48517;BME280;34310;51.904;4.256;2023-12-20T08:24:21;101669.16;;;15.11;63.03
48517;BME280;34310;51.904;4.256;2023-12-20T08:26:47;101668.25;;;15.11;62.93
48517;BME280;34310;51.904;4.256;2023-12-20T08:29:14;101663.84;;;15.10;62.80
48517;BME280;34310;51.904;4.256;2023-12-20T08:31:40;101670.66;;;15.08;62.87
48517;BME280;34310;51.904;4.256;2023-12-20T08:34:07;101676.66;;;15.07;62.86
48517;BME280;34310;51.904;4.256;2023-12-20T08:36:34;101680.06;;;15.06;63.01
48517;BME280;34310;51.904;4.256;2023-12-20T08:39:01;101687.06;;;15.07;63.01
48517;BME280;34310;51.904;4.256;2023-12-20T08:41:27;101687.88;;;15.06;62.95
48517;BME280;34310;51.904;4.256;2023-12-20T08:43:54;101684.03;;;15.01;62.85
48517;BME280;34310;51.904;4.256;2023-12-20T08:46:20;101685.94;;;15.03;62.93
48517;BME280;34310;51.904;4.256;2023-12-20T08:48:47;101685.03;;;15.03;62.94
48517;BME280;34310;51.904;4.256;2023-12-20T08:51:14;101687.53;;;15.01;63.03
48517;BME280;34310;51.904;4.256;2023-12-20T08:53:40;101683.22;;;15.02;62.93
48517;BME280;34310;51.904;4.256;2023-12-20T08:56:07;101683.22;;;15.02;63.21
48517;BME280;34310;51.904;4.256;2023-12-20T08:58:33;101681.44;;;15.01;63.08
48517;BME280;34310;51.904;4.256;2023-12-20T09:01:00;101667.63;;;15.02;63.03
48517;BME280;34310;51.904;4.256;2023-12-20T09:03:26;101662.41;;;15.02;63.01
48517;BME280;34310;51.904;4.256;2023-12-20T09:05:53;101671.81;;;15.00;63.18
48517;BME280;34310;51.904;4.256;2023-12-20T09:08:19;101680.53;;;15.00;62.95
48517;BME280;34310;51.904;4.256;2023-12-20T09:10:46;101674.44;;;15.00;63.08
48517;BME280;34310;51.904;4.256;2023-12-20T09:13:13;101673.44;;;14.98;63.05
48517;BME280;34310;51.904;4.256;2023-12-20T09:15:39;101661.72;;;14.91;62.98
48517;BME280;34310;51.904;4.256;2023-12-20T09:18:06;101679.03;;;14.91;63.20
48517;BME280;34310;51.904;4.256;2023-12-20T09:20:33;101679.03;;;14.91;63.12
48517;BME280;34310;51.904;4.256;2023-12-20T09:23:00;101667.53;;;14.87;63.16
48517;BME280;34310;51.904;4.256;2023-12-20T09:25:27;101669.22;;;14.86;63.58
48517;BME280;34310;51.904;4.256;2023-12-20T09:27:54;101666.22;;;14.80;63.35
48517;BME280;34310;51.904;4.256;2023-12-20T09:30:20;101674.81;;;14.79;63.33
48517;BME280;34310;51.904;4.256;2023-12-20T09:32:54;101677.44;;;14.79;63.49
48517;BME280;34310;51.904;4.256;2023-12-20T09:35:21;101667.50;;;14.74;63.38
48517;BME280;34310;51.904;4.256;2023-12-20T09:37:48;101664.13;;;14.75;63.52
48517;BME280;34310;51.904;4.256;2023-12-20T09:40:18;101669.78;;;14.69;63.73
48517;BME280;34310;51.904;4.256;2023-12-20T09:42:55;101663.69;;;14.69;63.67
48517;BME280;34310;51.904;4.256;2023-12-20T09:45:22;101675.97;;;14.71;63.63
48517;BME280;34310;51.904;4.256;2023-12-20T09:47:50;101682.19;;;14.73;63.58
48517;BME280;34310;51.904;4.256;2023-12-20T09:50:20;101670.44;;;14.78;63.53
48517;BME280;34310;51.904;4.256;2023-12-20T09:52:51;101677.63;;;14.82;63.38
48517;BME280;34310;51.904;4.256;2023-12-20T09:55:19;101691.44;;;14.81;63.30
48517;BME280;34310;51.904;4.256;2023-12-20T09:57:47;101685.31;;;14.81;63.52
48517;BME280;34310;51.904;4.256;2023-12-20T10:00:15;101683.63;;;14.81;63.58
48517;BME280;34310;51.904;4.256;2023-12-20T10:02:58;101687.91;;;14.81;63.82
48517;BME280;34310;51.904;4.256;2023-12-20T10:05:31;101680.22;;;14.82;63.81
48517;BME280;34310;51.904;4.256;2023-12-20T10:07:58;101687.22;;;14.83;63.79
48517;BME280;34310;51.904;4.256;2023-12-20T10:10:26;101685.53;;;14.84;63.65
48517;BME280;34310;51.904;4.256;2023-12-20T10:13:09;101680.94;;;14.80;63.50
48517;BME280;34310;51.904;4.256;2023-12-20T10:15:37;101676.72;;;14.82;63.60
48517;BME280;34310;51.904;4.256;2023-12-20T10:18:04;101677.44;;;14.79;63.61
48517;BME280;34310;51.904;4.256;2023-12-20T10:20:31;101675.81;;;14.81;63.57
48517;BME280;34310;51.904;4.256;2023-12-20T10:22:59;101667.13;;;14.81;63.58
48517;BME280;34310;51.904;4.256;2023-12-20T10:25:26;101669.53;;;14.78;63.68
48517;BME280;34310;51.904;4.256;2023-12-20T10:28:32;101683.94;;;14.86;63.75
48517;BME280;34310;51.904;4.256;2023-12-20T10:30:59;101672.13;;;14.91;63.68
48517;BME280;34310;51.904;4.256;2023-12-20T10:33:30;101670.13;;;15.00;63.45
48517;BME280;34310;51.904;4.256;2023-12-20T10:35:58;101666.34;;;15.08;63.06
48517;BME280;34310;51.904;4.256;2023-12-20T10:38:24;101658.25;;;15.17;62.97
48517;BME280;34310;51.904;4.256;2023-12-20T10:40:54;101650.03;;;15.24;62.82
48517;BME280;34310;51.904;4.256;2023-12-20T10:43:23;101649.53;;;15.30;62.70
48517;BME280;34310;51.904;4.256;2023-12-20T10:45:50;101645.72;;;15.38;62.48
48517;BME280;34310;51.904;4.256;2023-12-20T10:48:17;101631.72;;;15.36;62.53
48517;BME280;34310;51.904;4.256;2023-12-20T10:50:44;101621.50;;;15.39;62.40
48517;BME280;34310;51.904;4.256;2023-12-20T10:53:12;101625.59;;;15.48;62.36
48517;BME280;34310;51.904;4.256;2023-12-20T10:55:39;101635.28;;;15.51;62.11
48517;BME280;34310;51.904;4.256;2023-12-20T10:58:07;101620.66;;;15.53;62.23
48517;BME280;34310;51.904;4.256;2023-12-20T11:00:39;101641.59;;;15.55;62.15
48517;BME280;34310;51.904;4.256;2023-12-20T11:03:09;101627.78;;;15.56;62.21
48517;BME280;34310;51.904;4.256;2023-12-20T11:08:10;101626.97;;;15.57;62.12
48517;BME280;34310;51.904;4.256;2023-12-20T11:10:51;101631.38;;;15.58;62.02
48517;BME280;34310;51.904;4.256;2023-12-20T11:13:25;101631.59;;;15.61;62.13
48517;BME280;34310;51.904;4.256;2023-12-20T11:15:54;101634.09;;;15.59;62.11
48517;BME280;34310;51.904;4.256;2023-12-20T11:18:28;101619.50;;;15.61;61.98
48517;BME280;34310;51.904;4.256;2023-12-20T11:20:55;101610.66;;;15.59;61.96
48517;BME280;34310;51.904;4.256;2023-12-20T11:23:22;101609.66;;;15.57;62.08
48517;BME280;34310;51.904;4.256;2023-12-20T11:25:53;101607.38;;;15.62;62.01
48517;BME280;34310;51.904;4.256;2023-12-20T11:28:23;101601.06;;;15.58;62.04
48517;BME280;34310;51.904;4.256;2023-12-20T11:33:45;101589.16;;;15.62;61.80
48517;BME280;34310;51.904;4.256;2023-12-20T11:36:18;101584.75;;;15.61;62.03
48517;BME280;34310;51.904;4.256;2023-12-20T11:38:58;101587.56;;;15.64;62.12
48517;BME280;34310;51.904;4.256;2023-12-20T11:41:25;101592.84;;;15.65;61.83
48517;BME280;34310;51.904;4.256;2023-12-20T11:43:55;101589.16;;;15.62;61.74
48517;BME280;34310;51.904;4.256;2023-12-20T11:46:22;101593.47;;;15.61;62.10
48517;BME280;34310;51.904;4.256;2023-12-20T11:48:49;101592.31;;;15.58;62.10
48517;BME280;34310;51.904;4.256;2023-12-20T11:51:16;101595.63;;;15.55;62.00
48517;BME280;34310;51.904;4.256;2023-12-20T11:53:42;101599.13;;;15.56;62.20
48517;BME280;34310;51.904;4.256;2023-12-20T11:56:09;101589.63;;;15.56;62.24
48517;BME280;34310;51.904;4.256;2023-12-20T11:58:36;101586.13;;;15.56;61.93
48517;BME280;34310;51.904;4.256;2023-12-20T12:01:03;101580.81;;;15.54;62.07
48517;BME280;34310;51.904;4.256;2023-12-20T12:03:31;101591.22;;;15.54;62.26
48517;BME280;34310;51.904;4.256;2023-12-20T12:05:57;101587.63;;;15.52;62.32
48517;BME280;34310;51.904;4.256;2023-12-20T12:08:24;101590.34;;;15.54;62.12
48517;BME280;34310;51.904;4.256;2023-12-20T12:10:50;101585.94;;;15.53;62.41
48517;BME280;34310;51.904;4.256;2023-12-20T12:13:17;101587.53;;;15.50;62.29
48517;BME280;34310;51.904;4.256;2023-12-20T12:15:44;101573.34;;;15.45;62.28
48517;BME280;34310;51.904;4.256;2023-12-20T12:18:10;101561.75;;;15.40;62.24
48517;BME280;34310;51.904;4.256;2023-12-20T12:20:37;101568.25;;;15.47;62.59
48517;BME280;34310;51.904;4.256;2023-12-20T12:23:05;101568.16;;;15.45;62.51
48517;BME280;34310;51.904;4.256;2023-12-20T12:25:34;101553.25;;;15.43;62.38
48517;BME280;34310;51.904;4.256;2023-12-20T12:28:06;101554.03;;;15.42;62.38
48517;BME280;34310;51.904;4.256;2023-12-20T12:30:33;101558.53;;;15.44;62.45
48517;BME280;34310;51.904;4.256;2023-12-20T12:33:04;101542.66;;;15.40;62.48
48517;BME280;34310;51.904;4.256;2023-12-20T12:35:31;101554.13;;;15.43;62.46
48517;BME280;34310;51.904;4.256;2023-12-20T12:37:59;101558.34;;;15.41;62.65
48517;BME280;34310;51.904;4.256;2023-12-20T12:40:25;101545.97;;;15.37;62.69
48517;BME280;34310;51.904;4.256;2023-12-20T12:42:52;101554.03;;;15.42;62.56
48517;BME280;34310;51.904;4.256;2023-12-20T12:45:18;101545.88;;;15.36;62.65
48517;BME280;34310;51.904;4.256;2023-12-20T12:47:45;101550.34;;;15.38;62.49
48517;BME280;34310;51.904;4.256;2023-12-20T12:50:11;101545.78;;;15.34;62.67
48517;BME280;34310;51.904;4.256;2023-12-20T12:52:38;101529.94;;;15.31;62.59
48517;BME280;34310;51.904;4.256;2023-12-20T12:55:05;101538.16;;;15.37;62.55
48517;BME280;34310;51.904;4.256;2023-12-20T12:57:32;101515.75;;;15.26;62.62